Time;durP1;ratioP1;P1;durP2;ratioP2;P2;SDS_P1;SDS_P2;PMS_P1;PMS_P2;Temp;Humidity;BMP_temperature;BMP_pressure;BME280_temperature;BME280_humidity;BME280_pressure;Samples;Min_cycle;Max_cycle;Signal;HPM_P1;HPM_P2
2021/07/27 00:01:24;;;;;;;;;;;26.70;54.80;;;;;;5085108;28;19916;-62
2021/07/27 00:03:49;;;;;;;;;;;26.70;54.80;;;;;;5084724;28;19916;-61
2021/07/27 00:06:15;;;;;;;;;;;26.70;54.80;;;;;;5085919;28;19908;-65
2021/07/27 00:08:40;;;;;;;;;;;26.70;54.80;;;;;;5085582;28;19948;-63
2021/07/27 00:11:07;;;;;;;;;;;26.70;54.80;;;;;;5066540;28;19919;-62
2021/07/27 00:13:32;;;;;;;;;;;26.70;54.80;;;;;;5076777;28;19907;-61
2021/07/27 00:15:58;;;;;;;;;;;26.70;54.80;;;;;;5087190;28;19923;-60
2021/07/27 00:18:23;;;;;;;;;;;26.70;54.80;;;;;;5079467;28;19955;-63
2021/07/27 00:20:49;;;;;;;;;;;26.60;54.80;;;;;;5078514;28;20282;-60
2021/07/27 00:23:15;;;;;;;;;;;26.60;54.80;;;;;;5080579;28;19923;-61
2021/07/27 00:25:42;;;;;;;;;;;26.60;54.80;;;;;;5087096;28;20368;-64
2021/07/27 00:28:07;;;;;;;;;;;26.60;54.80;;;;;;5087378;28;20002;-62
2021/07/27 00:30:33;;;;;;;;;;;26.60;54.80;;;;;;5087414;28;20089;-61
2021/07/27 00:32:58;;;;;;;;;;;26.60;54.80;;;;;;5091114;28;19923;-64
2021/07/27 00:35:25;;;;;;;;;;;26.60;54.80;;;;;;5088230;28;19916;-61
2021/07/27 00:38:07;;;;;;;;;;;26.60;54.80;;;;;;5090500;28;19912;-65
2021/07/27 00:40:33;;;;;;;;;;;26.60;54.80;;;;;;5073827;28;19977;-64
2021/07/27 00:43:02;;;;;;;;;;;26.60;54.80;;;;;;5090330;28;20010;-63
2021/07/27 00:45:27;;;;;;;;;;;26.60;54.80;;;;;;5089429;28;20085;-60
2021/07/27 00:47:53;;;;;;;;;;;26.60;54.80;;;;;;5090412;28;20002;-63
2021/07/27 00:50:18;;;;;;;;;;;26.60;54.80;;;;;;5088588;28;19911;-64
2021/07/27 00:52:44;;;;;;;;;;;26.60;54.90;;;;;;5077246;28;19988;-63
2021/07/27 00:55:10;;;;;;;;;;;26.60;54.80;;;;;;5089360;28;20181;-66
2021/07/27 00:57:36;;;;;;;;;;;26.60;54.80;;;;;;5089695;28;19912;-63
2021/07/27 01:00:02;;;;;;;;;;;26.50;54.80;;;;;;5086011;28;19919;-64
2021/07/27 01:02:30;;;;;;;;;;;26.50;54.80;;;;;;5089301;28;20290;-60
2021/07/27 01:04:55;;;;;;;;;;;26.60;54.90;;;;;;5087430;28;20326;-64
2021/07/27 01:07:22;;;;;;;;;;;26.50;54.80;;;;;;5090318;28;19958;-61
2021/07/27 01:09:47;;;;;;;;;;;26.50;54.80;;;;;;5088518;28;19951;-61
2021/07/27 01:12:13;;;;;;;;;;;26.50;54.80;;;;;;5081418;28;19970;-60
2021/07/27 01:14:38;;;;;;;;;;;26.50;55.30;;;;;;5081139;28;19915;-64
2021/07/27 01:17:04;;;;;;;;;;;26.50;54.80;;;;;;5087551;28;19911;-62
2021/07/27 01:43:52;;;;;;;;;;;26.40;54.80;;;;;;5088692;28;20014;-62
2021/07/27 01:46:18;;;;;;;;;;;26.40;54.80;;;;;;5088786;28;19934;-60
2021/07/27 01:48:44;;;;;;;;;;;26.40;54.80;;;;;;5082448;28;19912;-63
2021/07/27 01:51:10;;;;;;;;;;;26.40;54.80;;;;;;5082990;28;19912;-63
2021/07/27 01:53:38;;;;;;;;;;;26.40;54.80;;;;;;5088172;28;20558;-63
2021/07/27 01:56:04;;;;;;;;;;;26.40;54.80;;;;;;5082345;28;20682;-63
2021/07/27 01:58:30;;;;;;;;;;;26.40;54.90;;;;;;5086785;28;19951;-65
2021/07/27 02:00:55;;;;;;;;;;;26.40;54.90;;;;;;5083339;28;19955;-61
2021/07/27 02:03:24;;;;;;;;;;;26.40;54.90;;;;;;5089268;28;20376;-63
2021/07/27 02:05:49;;;;;;;;;;;26.40;54.90;;;;;;5085983;28;20009;-61
2021/07/27 02:08:15;;;;;;;;;;;26.40;54.90;;;;;;5087209;28;19920;-62
2021/07/27 02:10:43;;;;;;;;;;;26.40;54.90;;;;;;5083450;28;19908;-63
2021/07/27 02:13:24;;;;;;;;;;;26.40;54.90;;;;;;5085061;28;19908;-63
2021/07/27 02:15:50;;;;;;;;;;;26.40;54.90;;;;;;5086039;28;19985;-62
2021/07/27 02:18:15;;;;;;;;;;;26.40;54.90;;;;;;5086951;28;20266;-62
2021/07/27 02:20:44;;;;;;;;;;;26.30;54.90;;;;;;5083824;28;19912;-61
2021/07/27 02:23:10;;;;;;;;;;;26.30;54.90;;;;;;5086721;28;19915;-60
2021/07/27 02:25:35;;;;;;;;;;;26.30;54.90;;;;;;5085116;28;19904;-64
2021/07/27 02:28:01;;;;;;;;;;;26.40;55.00;;;;;;5087972;28;19915;-61
2021/07/27 02:30:30;;;;;;;;;;;26.30;54.90;;;;;;5084782;28;19951;-61
2021/07/27 02:32:55;;;;;;;;;;;26.30;54.90;;;;;;5068505;28;19908;-63
2021/07/27 02:35:25;;;;;;;;;;;26.30;54.90;;;;;;5067664;28;20385;-60
2021/07/27 02:37:51;;;;;;;;;;;26.30;54.90;;;;;;5088126;28;19912;-60
2021/07/27 02:40:16;;;;;;;;;;;26.30;54.90;;;;;;5077818;28;19915;-64
2021/07/27 02:42:42;;;;;;;;;;;26.30;55.00;;;;;;5085242;28;19904;-60
2021/07/27 02:45:11;;;;;;;;;;;26.30;54.90;;;;;;5085353;28;19992;-61
2021/07/27 02:47:40;;;;;;;;;;;26.30;55.00;;;;;;5084796;28;20354;-65
2021/07/27 02:50:06;;;;;;;;;;;26.30;55.00;;;;;;5085900;28;19946;-66
2021/07/27 02:52:33;;;;;;;;;;;26.30;55.00;;;;;;5084332;28;19958;-60
2021/07/27 02:54:58;;;;;;;;;;;26.20;54.90;;;;;;5081662;28;19908;-62
2021/07/27 02:57:24;;;;;;;;;;;26.30;55.00;;;;;;5084835;28;20345;-63
2021/07/27 02:59:49;;;;;;;;;;;26.20;54.90;;;;;;5087622;28;20319;-61
2021/07/27 03:02:22;;;;;;;;;;;26.20;54.90;;;;;;5085708;28;19954;-60
2021/07/27 03:04:47;;;;;;;;;;;26.20;54.90;;;;;;5085822;28;20271;-65
2021/07/27 03:07:19;;;;;;;;;;;26.20;55.00;;;;;;5078977;28;19904;-63
2021/07/27 03:12:28;;;;;;;;;;;26.20;55.00;;;;;;5093260;28;19927;-60
2021/07/27 03:15:00;;;;;;;;;;;26.20;55.00;;;;;;5087942;28;20274;-65
2021/07/27 03:17:26;;;;;;;;;;;26.20;55.00;;;;;;5084898;28;19912;-63
2021/07/27 03:19:52;;;;;;;;;;;26.20;55.00;;;;;;5085868;28;20393;-61
2021/07/27 03:22:18;;;;;;;;;;;26.20;55.00;;;;;;5081118;28;20045;-62
2021/07/27 03:24:43;;;;;;;;;;;26.20;55.00;;;;;;5082920;28;20349;-65
2021/07/27 03:27:11;;;;;;;;;;;26.20;55.00;;;;;;5091418;28;20028;-63
2021/07/27 03:29:36;;;;;;;;;;;26.20;55.00;;;;;;5084750;28;20469;-59
2021/07/27 03:32:02;;;;;;;;;;;26.20;53.80;;;;;;5085176;28;20019;-60
2021/07/27 03:34:28;;;;;;;;;;;26.10;53.90;;;;;;5076939;28;19916;-66
2021/07/27 03:36:53;;;;;;;;;;;26.10;51.10;;;;;;5077105;28;19916;-63
2021/07/27 03:39:19;;;;;;;;;;;25.90;50.10;;;;;;5081923;28;19912;-63
2021/07/27 03:41:44;;;;;;;;;;;25.70;49.70;;;;;;5085873;28;20048;-64
2021/07/27 03:44:10;;;;;;;;;;;25.40;49.70;;;;;;5078740;28;20394;-60
2021/07/27 03:46:35;;;;;;;;;;;25.30;50.40;;;;;;5071623;28;19918;-65
2021/07/27 03:49:01;;;;;;;;;;;25.10;50.50;;;;;;5086162;28;19916;-63
2021/07/27 03:51:26;;;;;;;;;;;25.00;51.00;;;;;;5085583;28;19916;-63
2021/07/27 03:53:52;;;;;;;;;;;25.00;51.70;;;;;;5079245;28;20286;-63
2021/07/27 03:56:17;;;;;;;;;;;25.00;52.20;;;;;;5081470;28;19908;-59
2021/07/27 03:58:43;;;;;;;;;;;25.10;52.20;;;;;;5088681;28;19981;-61
2021/07/27 04:01:09;;;;;;;;;;;25.10;52.10;;;;;;5085917;28;19977;-60
2021/07/27 04:03:34;;;;;;;;;;;25.20;52.10;;;;;;5084623;28;19919;-61
2021/07/27 04:06:00;;;;;;;;;;;25.30;51.80;;;;;;5076573;28;20537;-62
2021/07/27 04:08:25;;;;;;;;;;;25.20;51.50;;;;;;5088439;28;19904;-63
2021/07/27 04:10:51;;;;;;;;;;;25.10;51.10;;;;;;5067115;28;19917;-64
2021/07/27 04:13:16;;;;;;;;;;;24.90;51.50;;;;;;5076859;28;20076;-61
2021/07/27 04:15:42;;;;;;;;;;;24.80;51.90;;;;;;5087744;28;19908;-59
2021/07/27 04:18:08;;;;;;;;;;;24.70;52.20;;;;;;5096511;28;19981;-61
2021/07/27 04:20:33;;;;;;;;;;;24.80;52.70;;;;;;5102143;28;19930;-60
2021/07/27 04:23:00;;;;;;;;;;;24.80;52.70;;;;;;5088105;28;19998;-63
2021/07/27 04:25:30;;;;;;;;;;;24.80;52.50;;;;;;5070886;28;20390;-61
2021/07/27 04:27:55;;;;;;;;;;;24.80;52.50;;;;;;5079673;28;19935;-57
2021/07/27 04:30:21;;;;;;;;;;;24.80;52.80;;;;;;5087935;28;19916;-59
2021/07/27 04:32:46;;;;;;;;;;;24.80;52.90;;;;;;5083100;28;19907;-61
2021/07/27 04:35:12;;;;;;;;;;;24.80;52.70;;;;;;5089317;28;20438;-63
2021/07/27 04:37:37;;;;;;;;;;;24.90;52.50;;;;;;5087604;28;19912;-63
2021/07/27 04:40:03;;;;;;;;;;;24.90;52.50;;;;;;5076930;28;20301;-61
2021/07/27 04:42:28;;;;;;;;;;;24.90;52.50;;;;;;5094560;28;20303;-58
2021/07/27 04:44:54;;;;;;;;;;;24.90;52.40;;;;;;5090004;28;20090;-64
2021/07/27 04:47:22;;;;;;;;;;;24.80;52.30;;;;;;5089321;28;19912;-60
2021/07/27 04:49:48;;;;;;;;;;;24.70;52.60;;;;;;5085068;28;19929;-58
2021/07/27 04:52:20;;;;;;;;;;;24.60;52.80;;;;;;5089630;28;20364;-64
2021/07/27 04:54:50;;;;;;;;;;;24.50;52.90;;;;;;5089098;28;19953;-60
2021/07/27 04:57:16;;;;;;;;;;;24.40;53.40;;;;;;5101049;28;19915;-60
2021/07/27 04:59:42;;;;;;;;;;;24.40;53.60;;;;;;5089358;28;19923;-62
2021/07/27 05:02:07;;;;;;;;;;;24.50;53.60;;;;;;5089807;28;19961;-59
2021/07/27 05:04:36;;;;;;;;;;;24.50;53.50;;;;;;5086860;28;19915;-60
2021/07/27 05:07:02;;;;;;;;;;;24.50;53.50;;;;;;5089550;28;19909;-59
2021/07/27 05:09:28;;;;;;;;;;;24.50;53.50;;;;;;5073830;28;19919;-59
2021/07/27 05:11:55;;;;;;;;;;;24.50;53.60;;;;;;5094279;28;19931;-58
2021/07/27 05:14:20;;;;;;;;;;;24.60;53.60;;;;;;5084295;28;19920;-60
2021/07/27 05:16:46;;;;;;;;;;;24.60;53.70;;;;;;5063646;28;19912;-59
2021/07/27 05:19:11;;;;;;;;;;;24.60;53.80;;;;;;5086513;28;19926;-60
2021/07/27 05:21:37;;;;;;;;;;;24.60;54.00;;;;;;5077385;28;19908;-59
2021/07/27 05:24:02;;;;;;;;;;;24.50;54.30;;;;;;5084762;28;19965;-59
2021/07/27 05:26:28;;;;;;;;;;;24.40;54.80;;;;;;5086510;28;20274;-61
2021/07/27 05:28:53;;;;;;;;;;;24.30;55.20;;;;;;5079198;28;19916;-59
2021/07/27 05:31:19;;;;;;;;;;;24.20;55.90;;;;;;5081208;28;20378;-59
2021/07/27 05:33:44;;;;;;;;;;;23.90;56.40;;;;;;5089118;28;19923;-62
2021/07/27 05:36:10;;;;;;;;;;;23.90;56.70;;;;;;5088411;28;19927;-60
2021/07/27 05:38:35;;;;;;;;;;;23.90;57.00;;;;;;5086956;28;19920;-65
2021/07/27 05:41:01;;;;;;;;;;;23.80;57.40;;;;;;5084250;28;20006;-61
2021/07/27 05:43:26;;;;;;;;;;;23.70;57.60;;;;;;5060783;28;19927;-59
2021/07/27 05:45:52;;;;;;;;;;;23.70;57.50;;;;;;5089122;28;19904;-60
2021/07/27 05:48:17;;;;;;;;;;;23.80;57.30;;;;;;5088926;28;20018;-60
2021/07/27 05:50:43;;;;;;;;;;;23.80;57.20;;;;;;5084455;28;19908;-63
2021/07/27 05:53:08;;;;;;;;;;;23.90;57.00;;;;;;5081356;28;19976;-61
2021/07/27 05:55:37;;;;;;;;;;;24.00;57.30;;;;;;5082208;28;19977;-60
2021/07/27 05:58:02;;;;;;;;;;;24.00;56.80;;;;;;5090645;28;20323;-60
2021/07/27 06:00:28;;;;;;;;;;;24.10;57.10;;;;;;5096109;28;19930;-61
2021/07/27 06:02:53;;;;;;;;;;;24.10;57.30;;;;;;5097398;28;20239;-59
2021/07/27 06:05:19;;;;;;;;;;;24.00;57.80;;;;;;5086448;28;19962;-60
2021/07/27 06:07:44;;;;;;;;;;;23.90;58.20;;;;;;5088681;28;19915;-60
2021/07/27 06:10:10;;;;;;;;;;;23.80;58.60;;;;;;5087543;28;20308;-63
2021/07/27 06:12:37;;;;;;;;;;;23.80;58.40;;;;;;5083863;28;19928;-62
2021/07/27 06:15:04;;;;;;;;;;;23.90;58.60;;;;;;5074517;28;19908;-64
2021/07/27 06:17:30;;;;;;;;;;;23.90;58.70;;;;;;5088138;28;20192;-62
2021/07/27 06:19:55;;;;;;;;;;;23.90;58.40;;;;;;5086980;28;19911;-58
2021/07/27 06:22:21;;;;;;;;;;;23.90;58.40;;;;;;5087601;28;19908;-63
2021/07/27 06:24:46;;;;;;;;;;;23.90;58.30;;;;;;5089105;28;21987;-62
2021/07/27 06:27:12;;;;;;;;;;;23.90;58.30;;;;;;5087643;28;19912;-59
2021/07/27 06:29:37;;;;;;;;;;;23.80;58.20;;;;;;5087611;28;19904;-62
2021/07/27 06:32:03;;;;;;;;;;;23.80;58.10;;;;;;5069588;28;19938;-59
2021/07/27 06:34:29;;;;;;;;;;;23.90;57.90;;;;;;5075218;28;19911;-62
2021/07/27 06:36:54;;;;;;;;;;;23.90;59.00;;;;;;5097075;28;19934;-58
2021/07/27 06:39:19;;;;;;;;;;;23.90;58.90;;;;;;5096112;28;19972;-62
2021/07/27 06:41:45;;;;;;;;;;;23.90;58.80;;;;;;5085615;28;20068;-62
2021/07/27 06:44:10;;;;;;;;;;;23.90;58.80;;;;;;5091323;28;19914;-60
2021/07/27 06:46:37;;;;;;;;;;;23.80;59.00;;;;;;5095140;28;19908;-60
2021/07/27 06:49:04;;;;;;;;;;;23.80;59.40;;;;;;5100607;28;20522;-62
2021/07/27 06:51:29;;;;;;;;;;;23.80;58.60;;;;;;5084116;28;19963;-65
2021/07/27 06:53:55;;;;;;;;;;;23.90;58.20;;;;;;5096110;28;19912;-63
2021/07/27 06:56:20;;;;;;;;;;;24.00;58.60;;;;;;5086133;28;20357;-62
2021/07/27 06:58:46;;;;;;;;;;;24.10;57.90;;;;;;5089102;28;20305;-62
2021/07/27 07:01:12;;;;;;;;;;;24.10;58.70;;;;;;5078758;28;19972;-60
2021/07/27 07:03:39;;;;;;;;;;;24.10;58.70;;;;;;5073094;28;20450;-59
2021/07/27 07:06:04;;;;;;;;;;;24.20;59.20;;;;;;5082202;28;19969;-59
2021/07/27 07:08:30;;;;;;;;;;;24.20;58.40;;;;;;5088448;28;20015;-63
2021/07/27 07:10:56;;;;;;;;;;;24.20;59.30;;;;;;5086113;28;19911;-62
2021/07/27 07:13:22;;;;;;;;;;;24.20;59.30;;;;;;5088126;28;19973;-61
2021/07/27 07:15:47;;;;;;;;;;;24.20;58.90;;;;;;5091461;28;19916;-59
2021/07/27 07:18:13;;;;;;;;;;;24.20;59.50;;;;;;5089872;28;19939;-62
2021/07/27 07:20:38;;;;;;;;;;;24.20;59.60;;;;;;5069546;28;19973;-60
2021/07/27 07:23:04;;;;;;;;;;;24.20;59.40;;;;;;5081440;28;19920;-60
2021/07/27 07:25:29;;;;;;;;;;;24.30;58.80;;;;;;5087341;28;19919;-59
2021/07/27 07:27:55;;;;;;;;;;;24.30;58.80;;;;;;5087834;28;20329;-64
2021/07/27 07:30:20;;;;;;;;;;;24.30;58.40;;;;;;5081407;28;20359;-60
2021/07/27 07:32:46;;;;;;;;;;;24.40;58.30;;;;;;5083898;28;19904;-60
2021/07/27 07:35:11;;;;;;;;;;;24.40;58.30;;;;;;5086653;28;20331;-60
2021/07/27 07:37:37;;;;;;;;;;;24.50;58.10;;;;;;5084628;28;20534;-60
2021/07/27 07:40:03;;;;;;;;;;;24.50;58.30;;;;;;5078193;28;19995;-63
2021/07/27 07:42:28;;;;;;;;;;;24.50;58.20;;;;;;5089815;28;20413;-60
2021/07/27 07:44:53;;;;;;;;;;;24.60;57.70;;;;;;5084294;28;19912;-61
2021/07/27 07:47:19;;;;;;;;;;;24.60;57.90;;;;;;5085533;28;19920;-64
2021/07/27 07:49:44;;;;;;;;;;;24.60;57.80;;;;;;5086166;28;19912;-63
2021/07/27 07:52:10;;;;;;;;;;;24.60;57.60;;;;;;5070404;28;20031;-63
2021/07/27 07:54:35;;;;;;;;;;;24.60;57.40;;;;;;5072846;28;19920;-63
2021/07/27 07:57:01;;;;;;;;;;;24.70;57.20;;;;;;5087188;28;19908;-60
2021/07/27 07:59:26;;;;;;;;;;;24.70;57.00;;;;;;5069545;28;19911;-63
2021/07/27 08:01:56;;;;;;;;;;;24.80;56.80;;;;;;5084592;28;19920;-60
2021/07/27 08:04:22;;;;;;;;;;;24.80;56.70;;;;;;5084937;28;19904;-63
2021/07/27 08:06:48;;;;;;;;;;;24.80;56.60;;;;;;5083482;28;20453;-59
2021/07/27 08:09:13;;;;;;;;;;;24.90;56.50;;;;;;5049657;28;19927;-61
2021/07/27 08:11:40;;;;;;;;;;;24.90;56.40;;;;;;5081889;28;19908;-61
2021/07/27 08:14:05;;;;;;;;;;;24.90;56.40;;;;;;5073724;28;20026;-61
2021/07/27 08:16:31;;;;;;;;;;;25.00;56.40;;;;;;5083745;28;19990;-63
2021/07/27 08:18:56;;;;;;;;;;;25.00;56.30;;;;;;5078188;28;20003;-63
2021/07/27 08:21:23;;;;;;;;;;;25.00;56.30;;;;;;5092137;28;20245;-66
2021/07/27 08:23:49;;;;;;;;;;;25.10;56.30;;;;;;5086389;28;19920;-64
2021/07/27 08:26:15;;;;;;;;;;;25.10;56.20;;;;;;5086639;28;19912;-59
2021/07/27 08:28:42;;;;;;;;;;;25.10;56.20;;;;;;5085993;28;19915;-63
2021/07/27 08:31:09;;;;;;;;;;;25.10;56.30;;;;;;5083744;28;19927;-64
2021/07/27 08:33:34;;;;;;;;;;;25.10;56.10;;;;;;5075951;28;19999;-61
2021/07/27 08:36:00;;;;;;;;;;;25.20;56.00;;;;;;5085607;28;19915;-63
2021/07/27 08:38:25;;;;;;;;;;;25.20;55.90;;;;;;5080651;28;19984;-65
2021/07/27 08:40:51;;;;;;;;;;;25.20;55.90;;;;;;5083902;28;19911;-62
2021/07/27 08:43:17;;;;;;;;;;;25.30;55.90;;;;;;5088074;28;20382;-60
2021/07/27 08:45:43;;;;;;;;;;;25.30;55.90;;;;;;5089067;28;19904;-64
2021/07/27 08:48:09;;;;;;;;;;;25.30;56.00;;;;;;5082539;28;19912;-61
2021/07/27 08:50:34;;;;;;;;;;;25.30;55.80;;;;;;5088638;28;19933;-64
2021/07/27 08:53:00;;;;;;;;;;;25.40;55.70;;;;;;5086209;28;19916;-61
2021/07/27 08:55:30;;;;;;;;;;;25.40;55.70;;;;;;5089543;28;19965;-62
2021/07/27 08:57:57;;;;;;;;;;;25.40;55.80;;;;;;5073307;28;19919;-62
2021/07/27 09:00:23;;;;;;;;;;;25.40;55.70;;;;;;5062248;28;19943;-63
2021/07/27 09:02:49;;;;;;;;;;;25.40;55.60;;;;;;5084158;28;20279;-60
2021/07/27 09:05:14;;;;;;;;;;;25.50;55.60;;;;;;5089764;28;19958;-60
2021/07/27 09:07:40;;;;;;;;;;;25.50;55.40;;;;;;5090773;28;19907;-60
2021/07/27 09:10:14;;;;;;;;;;;25.50;55.30;;;;;;5088009;28;19973;-62
2021/07/27 09:12:56;;;;;;;;;;;25.60;55.30;;;;;;5087654;28;20338;-59
2021/07/27 09:15:23;;;;;;;;;;;25.60;55.30;;;;;;5081132;28;19930;-62
2021/07/27 09:17:50;;;;;;;;;;;25.60;55.30;;;;;;5069522;28;19950;-61
2021/07/27 09:20:26;;;;;;;;;;;25.60;55.30;;;;;;5068781;28;20022;-62
2021/07/27 09:22:51;;;;;;;;;;;25.60;55.20;;;;;;5084081;28;19920;-61
2021/07/27 09:25:17;;;;;;;;;;;25.70;55.20;;;;;;5076880;28;19912;-63
2021/07/27 09:27:43;;;;;;;;;;;25.70;55.10;;;;;;5089572;28;20185;-63
2021/07/27 09:30:08;;;;;;;;;;;25.70;55.10;;;;;;5088002;28;19911;-60
2021/07/27 09:32:34;;;;;;;;;;;25.70;55.00;;;;;;5089454;28;20656;-61
2021/07/27 09:35:05;;;;;;;;;;;25.70;55.00;;;;;;5083262;28;20385;-64
2021/07/27 09:37:31;;;;;;;;;;;25.70;55.00;;;;;;5086223;28;19950;-60
2021/07/27 09:40:06;;;;;;;;;;;25.70;55.20;;;;;;5093867;28;19907;-64
2021/07/27 09:42:33;;;;;;;;;;;25.70;55.10;;;;;;5084249;28;19919;-60
2021/07/27 09:44:59;;;;;;;;;;;25.80;55.10;;;;;;5088289;28;20460;-63
2021/07/27 09:47:24;;;;;;;;;;;25.80;55.10;;;;;;5088930;28;19907;-62
2021/07/27 09:49:50;;;;;;;;;;;25.90;55.00;;;;;;5086737;28;19918;-60
2021/07/27 09:52:15;;;;;;;;;;;25.90;54.90;;;;;;5086696;28;19916;-61
2021/07/27 09:54:41;;;;;;;;;;;25.90;54.80;;;;;;5080743;28;19943;-64
2021/07/27 09:57:07;;;;;;;;;;;25.90;54.70;;;;;;5083429;28;19971;-64
2021/07/27 09:59:34;;;;;;;;;;;26.00;54.80;;;;;;5087741;28;19920;-62
2021/07/27 10:02:05;;;;;;;;;;;26.00;54.70;;;;;;5081123;28;19922;-60
2021/07/27 10:04:34;;;;;;;;;;;26.00;54.70;;;;;;5081782;28;20019;-62
2021/07/27 10:07:00;;;;;;;;;;;26.00;54.60;;;;;;5088955;28;19908;-61
2021/07/27 10:09:26;;;;;;;;;;;26.00;54.60;;;;;;5086252;28;19911;-65
2021/07/27 10:11:52;;;;;;;;;;;26.10;54.70;;;;;;5087388;28;19918;-62
2021/07/27 10:14:18;;;;;;;;;;;26.10;54.60;;;;;;5083948;28;19912;-62
2021/07/27 10:16:44;;;;;;;;;;;26.10;54.60;;;;;;5082504;28;19908;-64
2021/07/27 10:19:10;;;;;;;;;;;26.10;55.10;;;;;;5080547;28;20007;-61
2021/07/27 10:21:36;;;;;;;;;;;26.10;54.50;;;;;;5083703;28;19935;-64
2021/07/27 10:24:20;;;;;;;;;;;26.20;54.50;;;;;;5078152;28;20266;-61
2021/07/27 10:26:46;;;;;;;;;;;26.20;54.50;;;;;;5078121;28;19913;-62
2021/07/27 10:29:12;;;;;;;;;;;26.20;54.40;;;;;;5083250;28;19916;-60
2021/07/27 10:31:43;;;;;;;;;;;26.20;54.40;;;;;;5082273;28;19916;-61
2021/07/27 10:34:09;;;;;;;;;;;26.20;54.40;;;;;;5084464;28;19916;-61
2021/07/27 10:36:39;;;;;;;;;;;26.20;54.30;;;;;;5089031;28;19908;-63
2021/07/27 10:39:15;;;;;;;;;;;26.30;54.40;;;;;;5068806;28;20017;-61
2021/07/27 10:41:47;;;;;;;;;;;26.30;54.20;;;;;;5090557;28;19965;-61
2021/07/27 10:44:17;;;;;;;;;;;26.30;54.20;;;;;;5080897;28;19923;-61
2021/07/27 10:46:43;;;;;;;;;;;26.30;54.20;;;;;;5082741;28;19920;-62
2021/07/27 10:49:15;;;;;;;;;;;26.30;54.10;;;;;;5064167;28;19918;-66
2021/07/27 10:51:42;;;;;;;;;;;26.30;54.10;;;;;;5057757;28;20034;-64
2021/07/27 10:54:08;;;;;;;;;;;26.30;54.10;;;;;;5082058;28;20315;-62
2021/07/27 10:56:34;;;;;;;;;;;26.30;54.10;;;;;;5082717;28;19916;-62
2021/07/27 10:59:01;;;;;;;;;;;26.30;54.10;;;;;;5083249;28;19931;-61
2021/07/27 11:01:30;;;;;;;;;;;26.30;54.10;;;;;;5084771;28;20685;-61
2021/07/27 11:04:11;;;;;;;;;;;26.30;54.10;;;;;;5087258;28;19915;-62
2021/07/27 11:06:37;;;;;;;;;;;26.30;54.10;;;;;;5084393;28;19994;-57
2021/07/27 11:09:03;;;;;;;;;;;26.40;54.10;;;;;;5080650;28;20019;-63
2021/07/27 11:11:29;;;;;;;;;;;26.30;54.20;;;;;;5080126;28;19965;-65
2021/07/27 11:13:54;;;;;;;;;;;26.40;54.40;;;;;;5088067;28;20003;-64
2021/07/27 11:16:20;;;;;;;;;;;26.40;54.60;;;;;;5086998;28;19912;-62
2021/07/27 11:18:46;;;;;;;;;;;26.40;54.50;;;;;;5079587;28;20515;-62
2021/07/27 11:21:12;;;;;;;;;;;26.40;54.40;;;;;;5074486;28;20247;-62
2021/07/27 11:23:38;;;;;;;;;;;26.50;54.30;;;;;;5078539;28;19919;-64
2021/07/27 11:26:04;;;;;;;;;;;26.40;54.20;;;;;;5052416;28;19912;-62
2021/07/27 11:28:34;;;;;;;;;;;26.50;54.20;;;;;;5078291;28;19915;-64
2021/07/27 11:30:59;;;;;;;;;;;26.50;54.30;;;;;;5072617;28;19920;-62
2021/07/27 11:33:25;;;;;;;;;;;26.50;54.20;;;;;;5079898;28;19908;-62
2021/07/27 11:35:51;;;;;;;;;;;26.50;54.20;;;;;;5082406;28;19912;-65
2021/07/27 11:38:21;;;;;;;;;;;26.50;54.50;;;;;;5080833;28;20321;-61
2021/07/27 11:40:48;;;;;;;;;;;26.50;54.30;;;;;;5079175;28;19912;-64
2021/07/27 11:43:13;;;;;;;;;;;26.60;54.20;;;;;;5074624;28;20444;-66
2021/07/27 11:45:40;;;;;;;;;;;26.60;54.30;;;;;;5082787;28;19912;-60
2021/07/27 11:48:06;;;;;;;;;;;26.60;54.20;;;;;;5077066;28;19997;-60
2021/07/27 11:50:32;;;;;;;;;;;26.60;54.20;;;;;;5079525;28;20036;-64
2021/07/27 11:52:59;;;;;;;;;;;26.60;54.20;;;;;;5077914;28;19959;-64
2021/07/27 11:55:28;;;;;;;;;;;26.60;54.30;;;;;;5078757;28;19950;-62
2021/07/27 11:57:53;;;;;;;;;;;26.70;54.30;;;;;;5058328;28;19916;-65
2021/07/27 12:00:19;;;;;;;;;;;26.70;54.50;;;;;;5077355;28;20263;-64
2021/07/27 12:02:44;;;;;;;;;;;26.70;55.10;;;;;;5070968;28;19943;-66
2021/07/27 12:05:10;;;;;;;;;;;26.80;55.10;;;;;;5077608;28;19965;-63
2021/07/27 12:07:37;;;;;;;;;;;26.80;55.10;;;;;;5081472;28;19912;-64
2021/07/27 12:10:03;;;;;;;;;;;26.90;55.10;;;;;;5078692;28;19915;-64
2021/07/27 12:12:29;;;;;;;;;;;26.90;55.00;;;;;;5077907;28;19927;-61
2021/07/27 12:14:54;;;;;;;;;;;27.00;55.00;;;;;;5081205;28;19918;-63
2021/07/27 12:17:20;;;;;;;;;;;27.00;55.00;;;;;;5083155;28;19995;-65
2021/07/27 12:19:45;;;;;;;;;;;27.00;54.80;;;;;;5085362;28;19916;-67
2021/07/27 12:22:11;;;;;;;;;;;27.10;54.80;;;;;;5082391;28;19976;-64
2021/07/27 12:24:37;;;;;;;;;;;27.10;54.80;;;;;;5059817;28;20329;-63
2021/07/27 12:27:02;;;;;;;;;;;27.10;54.80;;;;;;5083657;28;19926;-63
2021/07/27 12:29:28;;;;;;;;;;;27.20;54.80;;;;;;5084413;28;19916;-63
2021/07/27 12:31:53;;;;;;;;;;;27.20;54.60;;;;;;5080594;28;20003;-64
2021/07/27 12:34:19;;;;;;;;;;;27.20;54.50;;;;;;5083922;28;19919;-63
2021/07/27 12:36:44;;;;;;;;;;;27.20;54.40;;;;;;5085200;28;19918;-64
2021/07/27 12:39:10;;;;;;;;;;;27.20;54.30;;;;;;5083348;28;20401;-62
2021/07/27 12:41:35;;;;;;;;;;;27.30;54.30;;;;;;5081875;28;19961;-63
2021/07/27 12:44:01;;;;;;;;;;;27.30;54.20;;;;;;5082249;28;20008;-64
2021/07/27 12:46:26;;;;;;;;;;;27.30;54.10;;;;;;5059278;28;20306;-62
2021/07/27 12:48:52;;;;;;;;;;;27.40;54.10;;;;;;5065235;28;20311;-64
2021/07/27 12:51:19;;;;;;;;;;;27.40;54.10;;;;;;5083135;28;19984;-66
2021/07/27 12:53:45;;;;;;;;;;;27.40;54.00;;;;;;5085388;28;20350;-66
2021/07/27 12:56:12;;;;;;;;;;;27.50;54.20;;;;;;5087646;28;20361;-65
2021/07/27 12:58:38;;;;;;;;;;;27.50;54.00;;;;;;5085880;28;19920;-63
2021/07/27 13:01:03;;;;;;;;;;;27.50;53.90;;;;;;5085637;28;19949;-64
2021/07/27 13:03:29;;;;;;;;;;;27.50;53.90;;;;;;5084499;28;20408;-61
2021/07/27 13:05:57;;;;;;;;;;;27.60;53.80;;;;;;5086333;28;19920;-66
2021/07/27 13:08:23;;;;;;;;;;;27.60;53.80;;;;;;5084135;28;19973;-62
2021/07/27 13:10:49;;;;;;;;;;;27.60;53.80;;;;;;5083237;28;19912;-61
2021/07/27 13:13:18;;;;;;;;;;;27.60;53.80;;;;;;5086231;28;19997;-67
2021/07/27 13:15:44;;;;;;;;;;;27.60;54.60;;;;;;5068861;28;19912;-62
2021/07/27 13:18:10;;;;;;;;;;;27.60;54.00;;;;;;5083359;28;19920;-63
2021/07/27 13:20:35;;;;;;;;;;;27.70;53.90;;;;;;5067216;28;19990;-63
2021/07/27 13:23:01;;;;;;;;;;;27.70;53.90;;;;;;5086306;28;19932;-61
2021/07/27 13:25:27;;;;;;;;;;;27.70;54.00;;;;;;5086137;28;19923;-63
2021/07/27 13:27:54;;;;;;;;;;;27.70;53.90;;;;;;5085404;28;19912;-63
2021/07/27 13:30:20;;;;;;;;;;;27.70;53.90;;;;;;5079133;28;20535;-60
2021/07/27 13:32:45;;;;;;;;;;;27.80;53.60;;;;;;5083803;28;19918;-61
2021/07/27 13:35:11;;;;;;;;;;;27.70;53.30;;;;;;5080736;28;22222;-62
2021/07/27 13:37:36;;;;;;;;;;;27.70;53.20;;;;;;5066571;28;19950;-63
2021/07/27 13:40:02;;;;;;;;;;;27.70;53.20;;;;;;5064780;28;19916;-64
2021/07/27 13:42:27;;;;;;;;;;;27.70;53.20;;;;;;5081090;28;20063;-65
2021/07/27 13:44:53;;;;;;;;;;;27.60;53.10;;;;;;5054164;28;20390;-63
2021/07/27 13:47:18;;;;;;;;;;;27.60;53.20;;;;;;5082047;28;20343;-64
2021/07/27 13:49:44;;;;;;;;;;;27.60;53.20;;;;;;5085479;28;20052;-62
2021/07/27 13:52:10;;;;;;;;;;;27.60;53.20;;;;;;5058446;28;19916;-63
2021/07/27 13:54:37;;;;;;;;;;;27.50;53.20;;;;;;5080408;28;19908;-66
2021/07/27 13:57:03;;;;;;;;;;;27.50;53.10;;;;;;5083035;28;19955;-62
2021/07/27 13:59:30;;;;;;;;;;;27.50;53.30;;;;;;5063041;28;20001;-63
2021/07/27 14:01:55;;;;;;;;;;;27.50;53.20;;;;;;5081756;28;20330;-61
2021/07/27 14:04:21;;;;;;;;;;;27.50;53.40;;;;;;5084956;28;19994;-61
2021/07/27 14:06:46;;;;;;;;;;;27.50;53.40;;;;;;5068796;28;19912;-63
2021/07/27 14:09:13;;;;;;;;;;;27.50;53.40;;;;;;5085995;28;20399;-62
2021/07/27 14:11:38;;;;;;;;;;;27.40;53.40;;;;;;5085138;28;19998;-63
2021/07/27 14:14:04;;;;;;;;;;;27.40;53.40;;;;;;5083563;28;20045;-61
2021/07/27 14:16:30;;;;;;;;;;;27.40;53.50;;;;;;5083441;28;19915;-61
2021/07/27 14:18:56;;;;;;;;;;;27.40;53.50;;;;;;5082538;28;19920;-60
2021/07/27 14:21:22;;;;;;;;;;;27.40;53.60;;;;;;5086364;28;19908;-65
2021/07/27 14:23:48;;;;;;;;;;;27.30;53.60;;;;;;5066797;28;19912;-62
2021/07/27 14:26:13;;;;;;;;;;;27.30;53.60;;;;;;5079081;28;19985;-61
2021/07/27 14:28:40;;;;;;;;;;;27.30;54.30;;;;;;5080718;28;19942;-62
2021/07/27 14:31:05;;;;;;;;;;;27.30;53.80;;;;;;5083721;28;20342;-63
2021/07/27 14:33:31;;;;;;;;;;;27.20;53.90;;;;;;5082789;28;19911;-63
2021/07/27 14:35:56;;;;;;;;;;;27.20;53.90;;;;;;5084480;28;20350;-61
2021/07/27 14:38:22;;;;;;;;;;;27.20;53.90;;;;;;5080674;28;20350;-65